createdAt,value
2023-02-14T00:00:52.103Z,70.63
2023-02-14T00:04:54.837Z,70.84
2023-02-14T00:08:56.244Z,71.12
2023-02-14T00:12:57.834Z,71.10
2023-02-14T00:16:59.453Z,71.45
2023-02-14T00:21:02.145Z,71.03
2023-02-14T00:25:04.177Z,70.80
2023-02-14T00:29:06.770Z,71.67
2023-02-14T00:33:08.137Z,71.36
2023-02-14T00:37:10.833Z,71.52
2023-02-14T00:41:12.499Z,71.56
2023-02-14T00:45:13.960Z,71.59
2023-02-14T00:49:15.430Z,71.55
2023-02-14T00:53:19.873Z,71.34
2023-02-14T00:57:21.316Z,71.44
2023-02-14T01:01:22.779Z,71.11
2023-02-14T01:05:24.196Z,71.87
2023-02-14T01:09:26.987Z,72.26
2023-02-14T01:13:28.316Z,72.39
2023-02-14T01:17:29.732Z,71.91
2023-02-14T01:21:33.754Z,71.78
2023-02-14T01:25:38.246Z,72.09
2023-02-14T01:29:39.615Z,71.79
2023-02-14T01:33:42.715Z,71.92
2023-02-14T01:37:44.113Z,72.54
2023-02-14T01:41:48.247Z,72.45
2023-02-14T01:45:49.680Z,72.84
2023-02-14T01:49:54.041Z,72.09
2023-02-14T01:53:56.466Z,73.01
2023-02-14T01:58:04.755Z,73.17
2023-02-14T02:02:07.717Z,73.98
2023-02-14T02:06:13.667Z,73.54
2023-02-14T02:10:15.026Z,73.28
2023-02-14T02:14:20.401Z,74.25
2023-02-14T02:18:32.166Z,74.58
2023-02-14T02:23:04.399Z,75.09
2023-02-14T02:27:44.346Z,74.82
2023-02-14T02:32:22.228Z,74.66
2023-02-14T02:36:50.000Z,74.48
2023-02-14T02:41:02.692Z,74.93
2023-02-14T02:45:11.793Z,74.94
2023-02-14T02:49:22.628Z,75.39
2023-02-14T02:53:32.099Z,75.32
2023-02-14T02:57:39.353Z,74.87
2023-02-14T03:01:41.369Z,75.37
2023-02-14T03:05:43.452Z,75.48
2023-02-14T03:09:54.741Z,76.00
2023-02-14T03:14:13.020Z,76.43
2023-02-14T03:18:30.115Z,76.91
2023-02-14T03:22:48.477Z,76.59
2023-02-14T03:26:59.612Z,76.91
2023-02-14T03:31:07.667Z,77.23
2023-02-14T03:35:18.148Z,76.90
2023-02-14T03:39:28.945Z,77.30
2023-02-14T03:43:35.253Z,77.41
2023-02-14T03:47:40.791Z,77.39
2023-02-14T03:51:47.593Z,77.24
2023-02-14T03:55:58.227Z,77.80
2023-02-14T04:00:01.117Z,78.22
2023-02-14T04:04:06.490Z,78.42
2023-02-14T04:08:07.898Z,78.18
2023-02-14T04:12:09.682Z,78.37
2023-02-14T04:16:12.521Z,78.46
2023-02-14T04:20:13.902Z,79.03
2023-02-14T04:24:15.273Z,78.75
2023-02-14T04:28:16.911Z,79.08
2023-02-14T04:32:22.040Z,78.82
2023-02-14T04:36:23.487Z,79.49
2023-02-14T04:40:24.844Z,79.05
2023-02-14T04:44:26.664Z,79.85
2023-02-14T04:48:29.344Z,80.86
2023-02-14T04:52:30.904Z,80.25
2023-02-14T04:56:32.328Z,80.40
2023-02-14T05:00:33.723Z,80.09
2023-02-14T05:04:36.481Z,80.67
2023-02-14T05:08:38.212Z,80.53
2023-02-14T05:12:39.640Z,80.63
2023-02-14T05:16:41.310Z,79.84
2023-02-14T05:20:44.126Z,80.54
2023-02-14T05:24:45.522Z,81.86
2023-02-14T05:28:48.281Z,82.49
2023-02-14T05:32:49.672Z,81.90
2023-02-14T05:36:52.525Z,81.49
2023-02-14T05:40:54.144Z,81.43
2023-02-14T05:44:55.528Z,81.19
2023-02-14T05:48:56.948Z,80.95
2023-02-14T05:53:00.754Z,82.69
2023-02-14T05:57:02.154Z,82.71
2023-02-14T06:01:03.673Z,82.94
2023-02-14T06:05:05.712Z,83.46
2023-02-14T06:09:08.643Z,83.06
2023-02-14T06:13:10.028Z,82.82
2023-02-14T06:17:11.869Z,82.29
2023-02-14T06:25:43.802Z,83.20
2023-02-14T06:29:45.180Z,83.83
2023-02-14T06:33:46.548Z,83.67
2023-02-14T06:37:48.174Z,84.13
2023-02-14T06:41:50.866Z,84.11
2023-02-14T06:45:52.291Z,84.24
2023-02-14T06:49:53.727Z,84.22
2023-02-14T06:53:55.111Z,84.64
2023-02-14T06:57:57.862Z,84.81
2023-02-14T07:01:59.252Z,85.13
2023-02-14T07:06:00.681Z,84.50
2023-02-14T07:10:02.052Z,84.72
2023-02-14T07:14:04.745Z,85.19
2023-02-14T07:18:06.382Z,84.48
2023-02-14T07:22:07.770Z,84.90
2023-02-14T07:26:09.304Z,84.88
2023-02-14T07:30:13.277Z,85.01
2023-02-14T07:34:14.732Z,84.97
2023-02-14T07:38:16.103Z,85.12
2023-02-14T07:42:17.480Z,85.27
2023-02-14T07:46:20.295Z,84.82
2023-02-14T07:50:22.945Z,84.51
2023-02-14T07:54:24.416Z,84.53
2023-02-14T07:58:25.811Z,84.55
2023-02-14T08:02:28.526Z,84.07
2023-02-14T08:06:29.923Z,83.90
2023-02-14T08:10:31.404Z,83.35
2023-02-14T08:14:32.777Z,82.52
2023-02-14T08:18:37.281Z,81.66
2023-02-14T08:22:38.658Z,81.71
2023-02-14T08:26:40.022Z,81.08
2023-02-14T08:30:42.278Z,80.16
2023-02-14T08:34:45.016Z,79.68
2023-02-14T08:38:46.506Z,79.23
2023-02-14T08:42:47.932Z,79.22
2023-02-14T08:46:49.348Z,78.81
2023-02-14T08:50:52.064Z,78.31
2023-02-14T08:54:53.441Z,78.51
2023-02-14T08:58:54.920Z,78.18
2023-02-14T09:02:56.381Z,78.07
2023-02-14T09:06:59.063Z,77.39
2023-02-14T09:11:06.783Z,77.37
2023-02-14T09:15:09.745Z,76.60
2023-02-14T09:19:11.453Z,76.22
2023-02-14T09:23:14.197Z,75.44
2023-02-14T09:27:15.578Z,75.16
2023-02-14T09:31:19.638Z,75.25
2023-02-14T09:35:21.071Z,74.76
2023-02-14T09:39:23.855Z,74.09
2023-02-14T09:43:34.121Z,73.07
2023-02-14T09:47:39.988Z,72.62
2023-02-14T09:51:46.573Z,72.12
2023-02-14T09:55:56.457Z,72.24
2023-02-14T10:00:13.435Z,70.91
2023-02-14T10:04:24.000Z,71.12
2023-02-14T10:08:33.129Z,70.91
2023-02-14T10:12:39.806Z,71.24
2023-02-14T10:16:47.050Z,70.82
2023-02-14T10:20:52.789Z,70.72
2023-02-14T10:24:58.903Z,69.50
2023-02-14T10:29:04.635Z,69.40
2023-02-14T10:33:15.398Z,68.67
2023-02-14T10:37:32.371Z,66.36
2023-02-14T10:41:46.509Z,64.82
2023-02-14T10:45:58.528Z,63.57
2023-02-14T10:50:11.490Z,61.05
2023-02-14T10:54:20.203Z,58.25
2023-02-14T10:58:23.747Z,56.93
2023-02-14T11:02:31.547Z,56.61
2023-02-14T11:06:33.303Z,54.59
2023-02-14T11:10:34.718Z,53.99
2023-02-14T11:14:37.724Z,53.42
2023-02-14T11:18:41.054Z,51.92
2023-02-14T11:22:43.537Z,52.56
2023-02-14T11:26:47.310Z,50.84
2023-02-14T11:30:51.113Z,51.42
2023-02-14T11:34:58.831Z,49.90
2023-02-14T11:39:06.046Z,49.42
2023-02-14T11:43:19.419Z,48.13
2023-02-14T11:47:27.133Z,49.87
2023-02-14T11:51:33.476Z,49.15
2023-02-14T11:55:35.046Z,49.56
2023-02-14T11:59:40.541Z,48.81
2023-02-14T12:03:46.547Z,49.37
2023-02-14T12:07:52.366Z,49.11
2023-02-14T12:11:58.445Z,48.86
2023-02-14T12:16:00.309Z,48.93
2023-02-14T12:20:08.855Z,46.89
2023-02-14T12:24:20.921Z,46.63
2023-02-14T12:28:28.166Z,47.12
2023-02-14T12:32:31.684Z,46.39
2023-02-14T12:36:49.825Z,47.17
2023-02-14T12:41:04.234Z,47.17
2023-02-14T12:45:17.234Z,47.12
2023-02-14T12:49:32.598Z,48.21
2023-02-14T12:53:56.080Z,47.94
2023-02-14T12:58:06.417Z,47.68
2023-02-14T13:02:41.905Z,48.07
2023-02-14T13:06:48.719Z,48.23
2023-02-14T13:10:57.265Z,47.98
2023-02-14T13:15:11.157Z,48.84
2023-02-14T13:19:26.486Z,49.14
2023-02-14T13:23:33.525Z,49.12
2023-02-14T13:27:38.450Z,49.37
2023-02-14T13:31:41.943Z,49.73
2023-02-14T13:35:43.883Z,50.25
2023-02-14T13:39:48.715Z,50.51
2023-02-14T13:43:57.503Z,50.54
2023-02-14T13:48:05.399Z,50.50
2023-02-14T13:52:06.855Z,51.47
2023-02-14T13:56:32.379Z,51.06
2023-02-14T14:00:43.631Z,50.74
2023-02-14T14:04:46.379Z,50.96
2023-02-14T14:08:50.661Z,51.23
2023-02-14T14:12:52.118Z,51.92
2023-02-14T14:16:57.875Z,51.87
2023-02-14T14:21:00.894Z,52.57
2023-02-14T14:25:04.652Z,52.58
2023-02-14T14:29:18.109Z,53.15
2023-02-14T14:33:25.719Z,53.42
2023-02-14T14:37:30.338Z,53.29
2023-02-14T14:41:32.649Z,53.53
2023-02-14T14:45:34.445Z,53.23
2023-02-14T14:49:36.601Z,54.32
2023-02-14T14:53:44.663Z,53.68
2023-02-14T14:57:50.566Z,54.21
2023-02-14T15:01:52.099Z,54.69
2023-02-14T15:06:04.879Z,54.42
2023-02-14T15:10:24.202Z,54.28
2023-02-14T15:14:30.238Z,54.25
2023-02-14T15:18:31.664Z,54.42
2023-02-14T15:22:41.813Z,54.03
2023-02-14T15:26:46.687Z,53.91
2023-02-14T15:30:56.137Z,54.88
2023-02-14T15:35:01.614Z,55.00
2023-02-14T15:39:06.371Z,54.96
2023-02-14T15:43:21.286Z,55.04
2023-02-14T15:47:22.662Z,55.27
2023-02-14T15:51:27.073Z,55.77
2023-02-14T15:55:29.842Z,56.07
2023-02-14T15:59:34.898Z,56.38
2023-02-14T16:03:40.144Z,56.32
2023-02-14T16:07:55.688Z,55.62
2023-02-14T16:11:57.244Z,55.94
2023-02-14T16:16:01.612Z,56.80
2023-02-14T16:20:28.351Z,57.44
2023-02-14T16:24:29.927Z,57.42
2023-02-14T16:28:35.813Z,58.06
2023-02-14T16:32:57.348Z,58.29
2023-02-14T16:41:24.439Z,58.99
2023-02-14T16:45:40.868Z,59.28
2023-02-14T16:49:43.982Z,59.11
2023-02-14T16:53:45.863Z,59.91
2023-02-14T16:57:51.349Z,60.10
2023-02-14T17:01:53.090Z,60.74
2023-02-14T17:05:57.776Z,60.58
2023-02-14T17:10:02.799Z,60.79
2023-02-14T17:14:04.614Z,61.34
2023-02-14T17:18:11.513Z,61.80
2023-02-14T17:22:14.555Z,61.95
2023-02-14T17:26:16.369Z,62.41
2023-02-14T17:30:18.232Z,62.42
2023-02-14T17:34:19.653Z,62.61
2023-02-14T17:38:22.353Z,62.98
2023-02-14T17:42:24.026Z,63.28
2023-02-14T17:46:25.984Z,64.08
2023-02-14T17:50:27.360Z,63.78
2023-02-14T17:54:30.073Z,64.75
2023-02-14T17:58:31.551Z,64.51
2023-02-14T18:02:32.971Z,64.75
2023-02-14T18:06:34.444Z,65.22
2023-02-14T18:10:38.640Z,65.99
2023-02-14T18:14:40.319Z,66.48
2023-02-14T18:18:46.012Z,66.80
2023-02-14T18:22:47.420Z,66.63
2023-02-14T18:26:50.223Z,67.49
2023-02-14T18:30:52.369Z,66.82
2023-02-14T18:34:54.046Z,66.96
2023-02-14T18:38:55.836Z,67.60
2023-02-14T18:42:58.532Z,68.26
2023-02-14T18:46:59.980Z,68.31
2023-02-14T18:51:05.326Z,68.69
2023-02-14T18:55:09.099Z,69.57
2023-02-14T18:59:11.807Z,69.97
2023-02-14T19:03:13.201Z,70.01
2023-02-14T19:07:14.662Z,70.31
2023-02-14T19:11:18.953Z,70.84
2023-02-14T19:15:21.651Z,71.46
2023-02-14T19:19:23.084Z,71.81
2023-02-14T19:23:24.633Z,72.59
2023-02-14T19:27:26.262Z,73.42
2023-02-14T19:31:29.293Z,72.63
2023-02-14T19:35:30.760Z,72.91
2023-02-14T19:39:32.244Z,73.45
2023-02-14T19:43:33.572Z,73.34
2023-02-14T19:47:46.712Z,74.27
2023-02-14T19:51:49.826Z,74.64
2023-02-14T19:55:51.189Z,74.76
2023-02-14T19:59:52.588Z,74.85
2023-02-14T20:03:55.727Z,75.70
2023-02-14T20:07:57.083Z,75.90
2023-02-14T20:11:58.566Z,75.95
2023-02-14T20:15:59.929Z,76.84
2023-02-14T20:20:02.973Z,76.94
2023-02-14T20:24:04.847Z,77.25
2023-02-14T20:28:10.251Z,77.21
2023-02-14T20:32:14.807Z,77.03
2023-02-14T20:36:23.824Z,77.83
2023-02-14T20:40:25.487Z,78.79
2023-02-14T20:44:26.993Z,78.71
2023-02-14T20:48:29.490Z,78.75
2023-02-14T20:52:32.236Z,77.81
2023-02-14T20:56:33.829Z,78.14
2023-02-14T21:00:35.184Z,78.55
2023-02-14T21:04:36.583Z,77.94
2023-02-14T21:08:42.311Z,78.06
2023-02-14T21:12:43.762Z,78.27
2023-02-14T21:16:45.159Z,78.21
2023-02-14T21:20:46.534Z,78.15
2023-02-14T21:24:49.483Z,78.45
2023-02-14T21:28:51.107Z,78.15
2023-02-14T21:32:52.862Z,78.05
2023-02-14T21:36:54.227Z,78.52
2023-02-14T21:41:01.623Z,79.62
2023-02-14T21:45:03.311Z,79.98
2023-02-14T21:49:05.969Z,80.14
2023-02-14T21:53:07.464Z,80.43
2023-02-14T21:57:10.255Z,80.30
2023-02-14T22:01:15.612Z,80.18
2023-02-14T22:05:17.298Z,79.66
2023-02-14T22:09:18.763Z,81.77
2023-02-14T22:13:21.686Z,81.82
2023-02-14T22:17:23.046Z,82.17
2023-02-14T22:21:26.216Z,82.30
2023-02-14T22:25:27.617Z,82.73
2023-02-14T22:29:30.317Z,83.21
2023-02-14T22:33:31.701Z,82.80
2023-02-14T22:37:33.217Z,83.83
2023-02-14T22:41:35.087Z,83.43
2023-02-14T22:45:37.786Z,83.57
2023-02-14T22:49:39.215Z,83.93
2023-02-14T22:53:40.553Z,83.89
2023-02-14T22:57:41.881Z,83.65
2023-02-14T23:01:45.460Z,83.57
2023-02-14T23:05:47.081Z,84.18
2023-02-14T23:09:49.247Z,83.85
2023-02-14T23:13:50.795Z,84.03
2023-02-14T23:17:53.467Z,83.65
2023-02-14T23:21:54.881Z,83.70
2023-02-14T23:25:56.255Z,84.22
2023-02-14T23:29:57.969Z,83.97
2023-02-14T23:34:00.685Z,84.48
2023-02-14T23:38:02.103Z,84.14
2023-02-14T23:42:03.662Z,84.08
2023-02-14T23:46:05.299Z,84.12
2023-02-14T23:50:09.158Z,84.30
2023-02-14T23:54:11.467Z,84.77
2023-02-14T23:58:12.821Z,84.61
